Time;durP1;ratioP1;P1;durP2;ratioP2;P2;SDS_P1;SDS_P2;PMS_P1;PMS_P2;Temp;Humidity;BMP_temperature;BMP_pressure;BME280_temperature;BME280_humidity;BME280_pressure;Samples;Min_cycle;Max_cycle;Signal;HPM_P1;HPM_P2
2022/11/22 00:00:28;;;;;;;10.07;1.93;;;;;;;;;;5099619;28;20225;-84
2022/11/22 00:02:55;;;;;;;6.80;1.80;;;;;;;;;;5108932;28;20229;-84
2022/11/22 00:05:22;;;;;;;9.67;1.87;;;;;;;;;;5111744;28;20230;-83
2022/11/22 00:07:50;;;;;;;10.47;2.50;;;;;;;;;;5110745;28;20647;-84
2022/11/22 00:10:17;;;;;;;8.60;2.43;;;;;;;;;;5107383;28;20295;-83
2022/11/22 00:12:45;;;;;;;8.67;1.80;;;;;;;;;;5100560;28;20745;-83
2022/11/22 00:15:14;;;;;;;9.07;2.47;;;;;;;;;;5108805;28;20237;-83
2022/11/22 00:17:42;;;;;;;8.07;2.00;;;;;;;;;;5108043;28;20286;-84
2022/11/22 00:20:10;;;;;;;7.03;2.60;;;;;;;;;;5109740;28;20201;-84
2022/11/22 00:22:38;;;;;;;9.17;1.87;;;;;;;;;;5107355;28;20254;-84
2022/11/22 00:25:06;;;;;;;9.40;1.90;;;;;;;;;;5108245;28;20286;-84
2022/11/22 00:27:33;;;;;;;5.97;1.80;;;;;;;;;;5105450;28;20576;-84
2022/11/22 00:30:00;;;;;;;6.50;1.77;;;;;;;;;;5101543;28;20305;-84
2022/11/22 00:32:29;;;;;;;6.17;1.40;;;;;;;;;;5094020;28;20323;-84
2022/11/22 00:34:56;;;;;;;9.10;1.97;;;;;;;;;;5095058;28;20237;-84
2022/11/22 00:37:23;;;;;;;6.87;1.80;;;;;;;;;;5110690;28;20608;-84
2022/11/22 00:39:50;;;;;;;7.20;2.03;;;;;;;;;;5100577;28;20629;-84
2022/11/22 00:42:17;;;;;;;7.07;1.67;;;;;;;;;;5094907;28;20305;-84
2022/11/22 00:44:44;;;;;;;7.07;1.50;;;;;;;;;;5103927;28;20233;-84
2022/11/22 00:47:12;;;;;;;5.37;1.53;;;;;;;;;;5106441;28;20272;-84
2022/11/22 00:49:41;;;;;;;7.30;1.30;;;;;;;;;;5106347;28;20286;-84
2022/11/22 00:52:08;;;;;;;7.27;1.20;;;;;;;;;;5096414;28;20225;-84
2022/11/22 00:54:35;;;;;;;2.87;1.37;;;;;;;;;;5105251;28;20293;-84
2022/11/22 00:57:02;;;;;;;4.73;1.50;;;;;;;;;;5103439;28;20284;-84
2022/11/22 00:59:30;;;;;;;9.13;1.53;;;;;;;;;;5100166;28;20276;-84
2022/11/22 01:01:57;;;;;;;6.23;1.20;;;;;;;;;;5104684;28;20717;-84
2022/11/22 01:04:24;;;;;;;5.57;1.30;;;;;;;;;;5100244;28;20225;-84
2022/11/22 01:06:53;;;;;;;5.17;0.90;;;;;;;;;;5105381;28;20267;-84
2022/11/22 01:09:21;;;;;;;4.80;1.10;;;;;;;;;;5104687;28;20653;-84
2022/11/22 01:11:49;;;;;;;3.40;0.80;;;;;;;;;;5101350;28;20746;-83
2022/11/22 01:14:16;;;;;;;4.33;1.30;;;;;;;;;;5104209;28;20237;-83
2022/11/22 01:16:43;;;;;;;6.33;1.20;;;;;;;;;;5102785;28;20293;-84
2022/11/22 01:19:11;;;;;;;7.40;1.70;;;;;;;;;;5102497;28;20219;-84
2022/11/22 01:21:38;;;;;;;6.27;1.30;;;;;;;;;;5105679;28;20300;-84
2022/11/22 01:24:07;;;;;;;7.70;1.57;;;;;;;;;;5102716;28;20269;-84
2022/11/22 01:26:59;;;;;;;5.97;1.50;;;;;;;;;;5103077;28;20282;-84
2022/11/22 01:29:26;;;;;;;5.40;0.93;;;;;;;;;;5097154;28;20253;-84
2022/11/22 01:31:53;;;;;;;8.20;1.60;;;;;;;;;;5102087;28;20240;-84
2022/11/22 01:34:20;;;;;;;5.17;1.17;;;;;;;;;;5097717;28;20222;-84
2022/11/22 01:36:48;;;;;;;5.93;1.53;;;;;;;;;;5102416;28;20230;-84
2022/11/22 01:39:16;;;;;;;7.00;1.20;;;;;;;;;;5101666;28;20230;-84
2022/11/22 01:41:44;;;;;;;5.83;1.13;;;;;;;;;;5103466;28;20301;-83
2022/11/22 01:44:18;;;;;;;7.00;1.50;;;;;;;;;;5104664;28;20250;-84
2022/11/22 01:46:46;;;;;;;6.57;1.10;;;;;;;;;;5103703;28;20284;-83
2022/11/22 01:49:15;;;;;;;11.27;1.40;;;;;;;;;;5094298;28;20244;-83
2022/11/22 01:51:44;;;;;;;4.67;1.20;;;;;;;;;;5093373;28;20726;-84
2022/11/22 01:54:13;;;;;;;8.07;1.33;;;;;;;;;;5080223;28;20318;-84
2022/11/22 01:56:44;;;;;;;5.97;1.03;;;;;;;;;;5093197;28;20206;-84
2022/11/22 01:59:13;;;;;;;7.80;1.20;;;;;;;;;;5103699;28;20198;-83
2022/11/22 02:01:41;;;;;;;8.87;1.30;;;;;;;;;;5113000;28;20308;-83
2022/11/22 02:04:08;;;;;;;5.50;1.17;;;;;;;;;;5094804;28;20225;-84
2022/11/22 02:06:39;;;;;;;7.40;1.53;;;;;;;;;;5113597;28;20233;-84
2022/11/22 02:09:08;;;;;;;5.93;1.23;;;;;;;;;;5113100;28;20236;-84
2022/11/22 02:11:37;;;;;;;7.00;1.47;;;;;;;;;;5094702;28;20238;-84
2022/11/22 02:14:07;;;;;;;8.17;2.10;;;;;;;;;;5092268;28;20293;-84
2022/11/22 02:16:35;;;;;;;5.73;1.10;;;;;;;;;;5085632;28;20294;-83
2022/11/22 02:19:02;;;;;;;6.37;1.33;;;;;;;;;;5093022;28;20218;-84
2022/11/22 02:21:29;;;;;;;8.67;1.37;;;;;;;;;;5109745;28;20261;-84
2022/11/22 02:23:59;;;;;;;7.63;1.30;;;;;;;;;;5100775;28;20606;-84
2022/11/22 02:26:29;;;;;;;7.03;1.60;;;;;;;;;;5103194;28;20849;-84
2022/11/22 02:28:58;;;;;;;8.10;1.40;;;;;;;;;;5098681;28;20257;-84
2022/11/22 02:31:36;;;;;;;7.63;1.30;;;;;;;;;;5102450;28;20212;-84
2022/11/22 02:34:03;;;;;;;10.50;1.10;;;;;;;;;;5098412;28;20246;-84
2022/11/22 02:36:31;;;;;;;4.90;1.10;;;;;;;;;;5096434;28;20229;-84
2022/11/22 02:38:58;;;;;;;5.13;1.20;;;;;;;;;;5092835;28;20649;-84
2022/11/22 02:41:26;;;;;;;8.37;1.87;;;;;;;;;;5076888;28;20667;-83
2022/11/22 02:43:54;;;;;;;12.83;1.50;;;;;;;;;;5086663;28;20797;-83
2022/11/22 02:46:22;;;;;;;8.00;1.10;;;;;;;;;;5113178;28;20284;-84
2022/11/22 02:48:53;;;;;;;8.67;1.37;;;;;;;;;;5113319;28;20231;-84
2022/11/22 02:51:25;;;;;;;8.87;1.47;;;;;;;;;;5113499;28;20236;-85
2022/11/22 02:53:52;;;;;;;8.57;1.40;;;;;;;;;;5104169;28;20745;-84
2022/11/22 02:56:20;;;;;;;10.57;1.70;;;;;;;;;;5098732;28;20204;-84
2022/11/22 02:58:47;;;;;;;6.23;1.20;;;;;;;;;;5099205;28;20222;-84
2022/11/22 03:01:16;;;;;;;10.20;1.50;;;;;;;;;;5097807;28;20244;-84
2022/11/22 03:03:43;;;;;;;11.50;1.60;;;;;;;;;;5109492;28;20205;-84
2022/11/22 03:06:10;;;;;;;8.00;1.50;;;;;;;;;;5108066;28;20285;-83
2022/11/22 03:08:37;;;;;;;6.60;1.50;;;;;;;;;;5094800;28;20309;-84
2022/11/22 03:11:05;;;;;;;6.00;1.23;;;;;;;;;;5097710;28;20291;-84
2022/11/22 03:13:32;;;;;;;9.67;1.60;;;;;;;;;;5092910;28;20708;-84
2022/11/22 03:15:59;;;;;;;5.23;1.50;;;;;;;;;;5092401;28;20624;-84
2022/11/22 03:18:28;;;;;;;6.43;1.07;;;;;;;;;;5099367;28;20291;-83
2022/11/22 03:20:55;;;;;;;6.60;1.30;;;;;;;;;;5103089;28;20264;-83
2022/11/22 03:23:25;;;;;;;6.53;1.07;;;;;;;;;;5091584;28;20302;-83
2022/11/22 03:25:52;;;;;;;7.27;1.53;;;;;;;;;;5098491;28;20645;-83
2022/11/22 03:28:19;;;;;;;9.03;1.53;;;;;;;;;;5101433;28;20199;-83
2022/11/22 03:30:46;;;;;;;9.17;1.53;;;;;;;;;;5100563;28;20313;-84
2022/11/22 03:33:14;;;;;;;10.53;1.63;;;;;;;;;;5101204;28;20569;-83
2022/11/22 03:35:42;;;;;;;6.87;1.30;;;;;;;;;;5108031;28;20281;-83
2022/11/22 03:38:10;;;;;;;8.70;1.63;;;;;;;;;;5092612;28;20226;-83
2022/11/22 03:40:37;;;;;;;10.57;1.77;;;;;;;;;;5085224;28;20199;-84
2022/11/22 03:43:04;;;;;;;12.17;1.90;;;;;;;;;;5097275;28;20254;-83
2022/11/22 03:45:31;;;;;;;10.73;1.63;;;;;;;;;;5107084;28;20224;-83
2022/11/22 03:47:59;;;;;;;13.97;2.67;;;;;;;;;;5105657;28;20251;-83
2022/11/22 03:50:26;;;;;;;10.03;1.90;;;;;;;;;;5094127;28;20281;-84
2022/11/22 03:52:55;;;;;;;16.47;2.53;;;;;;;;;;5095675;28;20286;-84
2022/11/22 03:55:23;;;;;;;9.13;1.60;;;;;;;;;;5104759;28;20226;-83
2022/11/22 03:57:51;;;;;;;10.37;2.13;;;;;;;;;;5104057;28;20692;-84
2022/11/22 04:00:19;;;;;;;10.77;1.57;;;;;;;;;;5096989;28;20252;-84
2022/11/22 04:02:46;;;;;;;7.73;1.57;;;;;;;;;;5103586;28;20253;-83
2022/11/22 04:05:13;;;;;;;8.80;1.60;;;;;;;;;;5100669;28;20237;-84
2022/11/22 04:07:40;;;;;;;10.63;1.87;;;;;;;;;;5098867;28;20299;-84
2022/11/22 04:10:09;;;;;;;11.67;1.87;;;;;;;;;;5108290;28;20254;-84
2022/11/22 04:12:36;;;;;;;12.47;2.53;;;;;;;;;;5103037;28;20225;-85
2022/11/22 04:15:06;;;;;;;10.90;1.80;;;;;;;;;;5099516;28;20241;-84
2022/11/22 04:23:02;;;;;;;12.00;1.93;;;;;;;;;;5110999;28;20224;-83
2022/11/22 04:25:31;;;;;;;14.63;2.13;;;;;;;;;;5110000;28;20356;-84
2022/11/22 04:27:58;;;;;;;11.77;2.33;;;;;;;;;;5099325;28;20336;-84
2022/11/22 04:33:10;;;;;;;9.53;2.07;;;;;;;;;;5094808;28;20205;-83
2022/11/22 04:35:37;;;;;;;14.60;2.03;;;;;;;;;;5092687;28;20733;-84
2022/11/22 04:38:05;;;;;;;10.17;1.90;;;;;;;;;;5074550;28;20286;-84
2022/11/22 04:40:33;;;;;;;14.20;2.27;;;;;;;;;;5101877;28;20277;-83
2022/11/22 04:45:46;;;;;;;10.73;1.83;;;;;;;;;;5086235;28;20201;-84
2022/11/22 04:48:13;;;;;;;9.63;1.87;;;;;;;;;;5106061;28;20285;-84
2022/11/22 04:53:26;;;;;;;12.97;1.97;;;;;;;;;;5103132;28;20589;-84
2022/11/22 04:55:54;;;;;;;12.50;2.17;;;;;;;;;;5108419;28;20233;-84
2022/11/22 04:58:22;;;;;;;14.40;2.10;;;;;;;;;;5102710;28;20730;-83
2022/11/22 05:00:49;;;;;;;10.13;2.43;;;;;;;;;;5104975;28;20618;-84
2022/11/22 05:03:17;;;;;;;12.50;2.00;;;;;;;;;;5114629;28;20249;-84
2022/11/22 05:05:45;;;;;;;15.63;2.37;;;;;;;;;;5111873;28;20285;-84
2022/11/22 05:08:13;;;;;;;10.80;2.17;;;;;;;;;;5099588;28;20230;-84
2022/11/22 05:10:58;;;;;;;11.60;2.43;;;;;;;;;;5096139;28;20788;-84
2022/11/22 05:13:29;;;;;;;12.87;1.97;;;;;;;;;;5092099;28;20197;-84
2022/11/22 05:15:57;;;;;;;11.37;1.80;;;;;;;;;;5109931;28;20237;-84
2022/11/22 05:18:25;;;;;;;10.20;2.13;;;;;;;;;;5108003;28;20282;-84
2022/11/22 05:20:53;;;;;;;10.53;2.00;;;;;;;;;;5095043;28;20282;-83
2022/11/22 05:26:05;;;;;;;9.97;1.73;;;;;;;;;;5113507;28;20270;-84
2022/11/22 05:28:35;;;;;;;13.33;2.77;;;;;;;;;;5107830;28;20684;-84
2022/11/22 05:31:07;;;;;;;10.37;2.00;;;;;;;;;;5102544;28;20284;-83
2022/11/22 05:33:35;;;;;;;11.33;1.80;;;;;;;;;;5112538;28;20281;-84
2022/11/22 05:36:03;;;;;;;9.80;2.10;;;;;;;;;;5102363;28;20226;-84
2022/11/22 05:38:30;;;;;;;12.23;1.90;;;;;;;;;;5097634;28;20225;-85
2022/11/22 05:40:57;;;;;;;13.00;2.20;;;;;;;;;;5097885;28;20630;-84
2022/11/22 05:43:24;;;;;;;15.70;2.07;;;;;;;;;;5093689;28;20261;-84
2022/11/22 05:45:53;;;;;;;10.37;1.90;;;;;;;;;;5093928;28;20285;-84
2022/11/22 05:48:20;;;;;;;10.20;2.00;;;;;;;;;;5093423;28;20229;-84
2022/11/22 05:50:47;;;;;;;14.70;2.57;;;;;;;;;;5114192;28;20236;-85
2022/11/22 05:53:15;;;;;;;11.60;2.47;;;;;;;;;;5114193;28;20285;-84
2022/11/22 05:55:42;;;;;;;9.80;2.00;;;;;;;;;;5101422;28;20233;-84
2022/11/22 05:58:09;;;;;;;14.83;2.37;;;;;;;;;;5110407;28;20229;-84
2022/11/22 06:00:36;;;;;;;12.20;1.90;;;;;;;;;;5097539;28;20723;-84
2022/11/22 06:03:05;;;;;;;11.70;2.17;;;;;;;;;;5101787;28;20214;-84
2022/11/22 06:05:33;;;;;;;14.43;2.77;;;;;;;;;;5094208;28;20194;-83
2022/11/22 06:08:01;;;;;;;15.47;2.23;;;;;;;;;;5103648;28;20292;-83
2022/11/22 06:10:29;;;;;;;10.10;1.83;;;;;;;;;;5101689;28;20278;-84
2022/11/22 06:12:56;;;;;;;8.33;1.87;;;;;;;;;;5104856;28;20620;-85
2022/11/22 06:15:24;;;;;;;13.27;2.37;;;;;;;;;;5093417;28;20198;-85
2022/11/22 06:17:51;;;;;;;13.10;2.40;;;;;;;;;;5100403;28;20205;-83
2022/11/22 06:20:20;;;;;;;11.70;1.90;;;;;;;;;;5113324;28;20197;-84
2022/11/22 06:22:47;;;;;;;6.93;1.57;;;;;;;;;;5113683;28;20274;-84
2022/11/22 06:25:15;;;;;;;10.60;1.80;;;;;;;;;;5113529;28;20198;-85
2022/11/22 06:27:42;;;;;;;9.17;2.20;;;;;;;;;;5113752;28;20205;-84
2022/11/22 06:30:10;;;;;;;7.50;1.63;;;;;;;;;;5113515;28;20214;-84
2022/11/22 06:32:37;;;;;;;8.57;1.70;;;;;;;;;;5107568;28;20201;-85
2022/11/22 06:35:16;;;;;;;13.77;2.23;;;;;;;;;;5094891;28;20202;-83
2022/11/22 06:37:45;;;;;;;8.93;1.80;;;;;;;;;;5108201;28;20251;-84
2022/11/22 06:40:19;;;;;;;10.73;1.70;;;;;;;;;;5101188;28;20264;-84
2022/11/22 06:42:47;;;;;;;6.27;1.47;;;;;;;;;;5105391;28;20213;-86
2022/11/22 06:45:14;;;;;;;10.53;1.90;;;;;;;;;;5095164;28;20243;-83
2022/11/22 06:47:41;;;;;;;9.17;1.60;;;;;;;;;;5093547;28;20285;-83
2022/11/22 06:50:09;;;;;;;8.07;1.73;;;;;;;;;;5092939;28;20206;-83
2022/11/22 06:52:36;;;;;;;9.50;1.70;;;;;;;;;;5093414;28;20269;-83
2022/11/22 06:55:05;;;;;;;5.53;1.30;;;;;;;;;;5110924;28;20280;-84
2022/11/22 06:57:32;;;;;;;7.80;1.50;;;;;;;;;;5112437;28;20293;-84
2022/11/22 06:59:59;;;;;;;12.30;1.90;;;;;;;;;;5094818;28;20222;-85
2022/11/22 07:02:27;;;;;;;7.57;1.90;;;;;;;;;;5104200;28;20213;-85
2022/11/22 07:04:54;;;;;;;6.50;1.30;;;;;;;;;;5092394;28;20287;-84
2022/11/22 07:07:21;;;;;;;5.07;1.27;;;;;;;;;;5100261;28;20682;-85
2022/11/22 07:09:48;;;;;;;8.33;1.63;;;;;;;;;;5098774;28;20202;-84
2022/11/22 07:12:17;;;;;;;10.43;1.87;;;;;;;;;;5107124;28;20281;-85
2022/11/22 07:14:44;;;;;;;6.30;1.33;;;;;;;;;;5092019;28;20750;-84
2022/11/22 07:17:11;;;;;;;9.80;1.70;;;;;;;;;;5092955;28;20252;-85
2022/11/22 07:19:39;;;;;;;6.07;1.63;;;;;;;;;;5096581;28;20270;-84
2022/11/22 07:22:06;;;;;;;6.03;1.50;;;;;;;;;;5095509;28;20238;-86
2022/11/22 07:24:33;;;;;;;14.43;1.93;;;;;;;;;;5098422;28;20321;-85
2022/11/22 07:27:00;;;;;;;8.13;1.77;;;;;;;;;;5089887;28;20202;-82
2022/11/22 07:29:29;;;;;;;12.70;2.20;;;;;;;;;;5093413;28;20682;-82
2022/11/22 07:31:56;;;;;;;11.07;1.80;;;;;;;;;;5095469;28;20230;-82
2022/11/22 07:34:23;;;;;;;12.00;2.13;;;;;;;;;;5098920;28;20222;-82
2022/11/22 07:36:50;;;;;;;7.43;1.87;;;;;;;;;;5089789;28;20289;-82
2022/11/22 07:39:18;;;;;;;12.37;1.70;;;;;;;;;;5103223;28;20222;-83
2022/11/22 07:41:45;;;;;;;12.33;2.30;;;;;;;;;;5097019;28;20250;-82
2022/11/22 07:44:12;;;;;;;14.27;2.20;;;;;;;;;;5101649;28;20256;-82
2022/11/22 07:46:41;;;;;;;12.83;2.30;;;;;;;;;;5099792;28;20763;-82
2022/11/22 07:49:09;;;;;;;10.50;1.90;;;;;;;;;;5103889;28;20194;-83
2022/11/22 07:51:37;;;;;;;10.67;1.93;;;;;;;;;;5100062;28;20283;-83
2022/11/22 07:54:04;;;;;;;11.73;1.70;;;;;;;;;;5106256;28;20736;-83
2022/11/22 07:56:31;;;;;;;12.03;2.40;;;;;;;;;;5104245;28;20281;-83
2022/11/22 07:58:58;;;;;;;8.37;1.87;;;;;;;;;;5112569;28;20688;-83
2022/11/22 08:01:25;;;;;;;9.27;2.23;;;;;;;;;;5107244;28;20289;-83
2022/11/22 08:03:54;;;;;;;7.03;1.97;;;;;;;;;;5099404;28;20263;-83
2022/11/22 08:06:22;;;;;;;9.73;2.23;;;;;;;;;;5096371;28;20195;-83
2022/11/22 08:08:49;;;;;;;13.50;2.60;;;;;;;;;;5104108;28;20241;-82
2022/11/22 08:11:16;;;;;;;12.63;2.37;;;;;;;;;;5103335;28;20317;-83
2022/11/22 08:13:43;;;;;;;12.23;2.50;;;;;;;;;;5109076;28;20694;-83
2022/11/22 08:16:12;;;;;;;8.57;2.60;;;;;;;;;;5102060;28;20213;-83
2022/11/22 08:18:40;;;;;;;11.30;2.17;;;;;;;;;;5106751;28;20289;-83
2022/11/22 08:21:10;;;;;;;9.60;2.03;;;;;;;;;;5103372;28;20229;-82
2022/11/22 08:23:38;;;;;;;10.10;2.30;;;;;;;;;;5099353;28;20249;-83
2022/11/22 08:26:06;;;;;;;11.33;3.27;;;;;;;;;;5107130;27;20236;-83
2022/11/22 08:28:33;;;;;;;13.53;3.70;;;;;;;;;;5104038;28;20292;-84
2022/11/22 08:31:01;;;;;;;12.10;4.00;;;;;;;;;;5103290;28;20273;-84
2022/11/22 08:33:29;;;;;;;9.83;3.13;;;;;;;;;;5110751;28;20284;-84
2022/11/22 08:35:56;;;;;;;13.43;3.50;;;;;;;;;;5093913;28;20288;-84
2022/11/22 08:38:25;;;;;;;9.23;2.20;;;;;;;;;;5109271;28;20277;-84
2022/11/22 08:40:52;;;;;;;9.10;2.50;;;;;;;;;;5098324;28;20224;-84
2022/11/22 08:43:20;;;;;;;8.30;2.63;;;;;;;;;;5110677;28;20244;-83
2022/11/22 08:45:47;;;;;;;9.98;2.85;;;;;;;;;;5089311;28;20210;-84
2022/11/22 08:48:15;;;;;;;9.75;2.72;;;;;;;;;;5100353;28;20284;-85
2022/11/22 08:50:42;;;;;;;7.40;2.47;;;;;;;;;;5110045;28;20237;-83
2022/11/22 08:53:09;;;;;;;8.13;2.33;;;;;;;;;;5094813;28;20237;-84
2022/11/22 08:55:38;;;;;;;5.68;1.85;;;;;;;;;;5111313;28;20293;-85
2022/11/22 08:58:05;;;;;;;7.60;2.00;;;;;;;;;;5074476;28;20207;-84
2022/11/22 09:00:32;;;;;;;6.20;2.33;;;;;;;;;;5074856;28;20234;-85
2022/11/22 09:02:59;;;;;;;7.15;2.15;;;;;;;;;;5074296;28;20199;-85
2022/11/22 09:05:27;;;;;;;7.10;2.10;;;;;;;;;;5093959;28;20280;-85
2022/11/22 09:07:54;;;;;;;7.30;2.10;;;;;;;;;;5101706;28;20202;-85
2022/11/22 09:10:21;;;;;;;9.57;2.00;;;;;;;;;;5103903;28;20756;-85
2022/11/22 09:12:50;;;;;;;4.32;1.42;;;;;;;;;;5096570;28;20225;-85
2022/11/22 09:15:17;;;;;;;6.30;1.50;;;;;;;;;;5096200;28;20191;-85
2022/11/22 09:17:44;;;;;;;8.00;1.73;;;;;;;;;;5096680;28;20199;-85
2022/11/22 09:20:12;;;;;;;5.03;1.40;;;;;;;;;;5110840;28;20222;-85
2022/11/22 09:22:40;;;;;;;7.65;1.58;;;;;;;;;;5106384;28;20737;-85
2022/11/22 09:25:08;;;;;;;5.70;1.43;;;;;;;;;;5108811;28;20214;-85
2022/11/22 09:27:35;;;;;;;8.97;1.47;;;;;;;;;;5107831;28;20294;-85
2022/11/22 09:30:04;;;;;;;8.13;1.43;;;;;;;;;;5094104;28;20226;-85
2022/11/22 09:32:31;;;;;;;6.57;1.67;;;;;;;;;;5094293;28;20277;-85
2022/11/22 09:34:58;;;;;;;4.77;1.40;;;;;;;;;;5093998;28;20727;-85
2022/11/22 09:37:26;;;;;;;5.00;1.07;;;;;;;;;;5108635;28;20233;-85
2022/11/22 09:39:53;;;;;;;6.33;1.50;;;;;;;;;;5080454;28;20290;-86
2022/11/22 09:42:32;;;;;;;4.23;1.23;;;;;;;;;;5093429;28;20237;-85
2022/11/22 09:45:11;;;;;;;7.47;1.80;;;;;;;;;;5093921;28;20312;-86
2022/11/22 09:47:40;;;;;;;8.77;1.80;;;;;;;;;;5093722;28;20202;-85
2022/11/22 09:50:13;;;;;;;10.38;2.03;;;;;;;;;;5093961;28;20284;-85
2022/11/22 09:52:45;;;;;;;10.70;1.60;;;;;;;;;;5093404;28;20205;-85
2022/11/22 09:55:15;;;;;;;6.93;1.53;;;;;;;;;;5094881;28;20273;-85
2022/11/22 09:57:45;;;;;;;5.80;1.40;;;;;;;;;;5100407;28;20237;-87
2022/11/22 10:00:20;;;;;;;9.30;1.90;;;;;;;;;;5109500;28;20285;-85
2022/11/22 10:02:50;;;;;;;7.32;1.70;;;;;;;;;;5114322;28;20224;-86
2022/11/22 10:05:19;;;;;;;7.07;1.67;;;;;;;;;;5113893;28;20662;-86
2022/11/22 10:07:49;;;;;;;8.20;1.63;;;;;;;;;;5113968;28;20713;-86
2022/11/22 10:10:18;;;;;;;6.32;1.55;;;;;;;;;;5101003;28;20316;-86
2022/11/22 10:12:48;;;;;;;6.50;1.30;;;;;;;;;;5110714;28;20293;-86
2022/11/22 10:15:20;;;;;;;5.03;1.33;;;;;;;;;;5093667;28;20229;-86
2022/11/22 10:17:52;;;;;;;8.07;1.70;;;;;;;;;;5093241;28;20621;-86
2022/11/22 10:20:20;;;;;;;6.53;1.63;;;;;;;;;;5101722;28;20693;-86
2022/11/22 10:22:48;;;;;;;9.23;1.92;;;;;;;;;;5113428;28;20627;-86
2022/11/22 10:25:17;;;;;;;8.23;1.58;;;;;;;;;;5103529;28;20309;-86
2022/11/22 10:27:49;;;;;;;9.32;1.70;;;;;;;;;;5092907;28;20209;-86
2022/11/22 10:30:20;;;;;;;8.07;1.83;;;;;;;;;;5089889;28;20301;-86
2022/11/22 10:32:56;;;;;;;9.15;2.00;;;;;;;;;;5079818;28;20202;-86
2022/11/22 10:35:28;;;;;;;8.95;1.42;;;;;;;;;;5093552;28;20282;-86
2022/11/22 10:37:59;;;;;;;10.45;2.58;;;;;;;;;;5093581;28;20256;-85
2022/11/22 10:40:28;;;;;;;6.55;1.95;;;;;;;;;;5106001;28;20286;-85
2022/11/22 10:43:03;;;;;;;7.68;1.92;;;;;;;;;;5092835;28;20245;-86
2022/11/22 10:45:34;;;;;;;9.52;2.38;;;;;;;;;;5093078;28;20301;-86
2022/11/22 10:48:07;;;;;;;11.05;2.05;;;;;;;;;;5092797;28;20294;-85
2022/11/22 10:50:39;;;;;;;7.80;1.77;;;;;;;;;;5103985;28;20700;-86
2022/11/22 10:53:08;;;;;;;11.15;2.20;;;;;;;;;;5078360;28;20229;-85
2022/11/22 10:55:42;;;;;;;10.55;2.42;;;;;;;;;;5085414;28;20289;-85
2022/11/22 10:58:15;;;;;;;8.48;2.97;;;;;;;;;;5081341;28;20241;-86
2022/11/22 11:00:45;;;;;;;10.82;3.65;;;;;;;;;;5080572;28;20285;-86
2022/11/22 11:03:25;;;;;;;8.75;2.08;;;;;;;;;;5086676;28;20229;-86
2022/11/22 11:05:54;;;;;;;11.30;1.90;;;;;;;;;;5102665;28;20253;-85
2022/11/22 11:08:28;;;;;;;7.97;1.77;;;;;;;;;;5097209;28;20704;-87
2022/11/22 11:10:55;;;;;;;10.80;1.97;;;;;;;;;;5079093;28;20676;-87
2022/11/22 11:13:25;;;;;;;8.13;2.00;;;;;;;;;;5077173;28;20290;-86
2022/11/22 11:15:54;;;;;;;8.50;1.70;;;;;;;;;;5077116;28;20674;-86
2022/11/22 11:18:25;;;;;;;10.13;1.80;;;;;;;;;;5098002;28;20645;-86
2022/11/22 11:20:52;;;;;;;11.20;1.98;;;;;;;;;;5076769;28;20627;-86
2022/11/22 11:23:20;;;;;;;8.80;1.90;;;;;;;;;;5086781;28;20202;-85
2022/11/22 11:25:48;;;;;;;10.32;1.92;;;;;;;;;;5096599;28;20646;-86
2022/11/22 11:28:19;;;;;;;9.88;2.00;;;;;;;;;;5095132;28;20612;-86
2022/11/22 11:30:47;;;;;;;10.07;1.98;;;;;;;;;;5096083;28;20800;-86
2022/11/22 11:33:19;;;;;;;6.50;1.20;;;;;;;;;;5095771;28;20277;-85
2022/11/22 11:35:47;;;;;;;7.95;2.17;;;;;;;;;;5099586;28;20254;-86
2022/11/22 11:38:27;;;;;;;10.18;1.55;;;;;;;;;;5097948;28;20201;-85
2022/11/22 11:40:54;;;;;;;9.30;1.77;;;;;;;;;;5095884;28;20202;-88
2022/11/22 11:43:22;;;;;;;6.43;1.98;;;;;;;;;;5095649;28;20248;-86
2022/11/22 11:45:50;;;;;;;9.43;1.90;;;;;;;;;;5094510;28;20277;-84
2022/11/22 11:48:29;;;;;;;7.93;1.95;;;;;;;;;;5095403;28;20247;-86
2022/11/22 11:51:12;;;;;;;9.63;2.08;;;;;;;;;;5095242;28;20291;-85
2022/11/22 11:53:40;;;;;;;6.47;1.58;;;;;;;;;;5095474;28;20263;-86
2022/11/22 11:56:21;;;;;;;6.43;1.65;;;;;;;;;;5095707;28;20615;-86
2022/11/22 11:58:52;;;;;;;7.07;1.73;;;;;;;;;;5094941;28;20248;-88
2022/11/22 12:01:20;;;;;;;7.20;1.70;;;;;;;;;;5102176;28;20289;-77
2022/11/22 12:03:53;;;;;;;10.02;1.92;;;;;;;;;;5094757;28;20199;-76
2022/11/22 12:06:20;;;;;;;9.13;2.10;;;;;;;;;;5086535;28;20281;-80
2022/11/22 12:08:47;;;;;;;7.00;1.50;;;;;;;;;;5094465;28;20212;-80
2022/11/22 12:11:17;;;;;;;9.90;1.65;;;;;;;;;;5096575;28;20297;-80
2022/11/22 12:13:45;;;;;;;9.05;1.90;;;;;;;;;;5094766;28;20285;-80
2022/11/22 12:16:16;;;;;;;8.48;1.85;;;;;;;;;;5093551;28;20230;-81
2022/11/22 12:18:49;;;;;;;8.73;2.00;;;;;;;;;;5089755;28;20278;-81
2022/11/22 12:21:23;;;;;;;9.80;1.80;;;;;;;;;;5098820;28;20586;-79
2022/11/22 12:23:52;;;;;;;9.60;1.75;;;;;;;;;;5094598;28;20285;-79
2022/11/22 12:26:19;;;;;;;8.45;1.70;;;;;;;;;;5094024;28;20297;-78
2022/11/22 12:28:47;;;;;;;10.27;1.90;;;;;;;;;;5099186;28;20249;-79
2022/11/22 12:31:24;;;;;;;9.75;2.00;;;;;;;;;;5094120;28;20624;-79
2022/11/22 12:33:53;;;;;;;8.85;2.13;;;;;;;;;;5094509;28;20661;-79
2022/11/22 12:36:25;;;;;;;11.50;2.00;;;;;;;;;;5080086;28;20274;-79
2022/11/22 12:38:53;;;;;;;7.40;1.67;;;;;;;;;;5095080;28;20230;-79
2022/11/22 12:41:22;;;;;;;9.73;1.90;;;;;;;;;;5107971;28;20259;-79
2022/11/22 12:43:53;;;;;;;13.13;2.33;;;;;;;;;;5109365;28;20229;-79
2022/11/22 12:46:21;;;;;;;11.57;2.58;;;;;;;;;;5094393;28;20590;-79
2022/11/22 12:48:51;;;;;;;8.65;1.88;;;;;;;;;;5087415;28;20198;-79
2022/11/22 12:51:21;;;;;;;10.07;2.23;;;;;;;;;;5094314;28;20293;-79
2022/11/22 12:53:51;;;;;;;8.50;1.53;;;;;;;;;;5111596;28;20740;-79
2022/11/22 12:56:28;;;;;;;5.53;1.50;;;;;;;;;;5110467;28;20281;-86
2022/11/22 12:59:01;;;;;;;9.73;1.80;;;;;;;;;;5094939;28;20617;-85
2022/11/22 13:01:30;;;;;;;9.50;2.20;;;;;;;;;;5112484;28;20201;-85
2022/11/22 13:04:00;;;;;;;9.07;1.80;;;;;;;;;;5099854;28;20206;-85
2022/11/22 13:06:39;;;;;;;7.23;1.70;;;;;;;;;;5094219;28;20621;-85
2022/11/22 13:09:11;;;;;;;13.93;2.37;;;;;;;;;;5094870;28;20200;-86
2022/11/22 13:11:40;;;;;;;11.93;2.47;;;;;;;;;;5094529;28;20234;-85
2022/11/22 13:14:11;;;;;;;10.40;2.70;;;;;;;;;;5094134;28;20278;-85
2022/11/22 13:16:39;;;;;;;10.63;1.90;;;;;;;;;;5094684;28;20263;-84
2022/11/22 13:19:07;;;;;;;12.70;2.67;;;;;;;;;;5081351;28;20199;-80
2022/11/22 13:21:39;;;;;;;12.37;2.83;;;;;;;;;;5104312;28;20249;-80
2022/11/22 13:24:17;;;;;;;9.03;1.97;;;;;;;;;;5095901;28;20202;-80
2022/11/22 13:26:48;;;;;;;13.23;2.20;;;;;;;;;;5094303;28;20285;-80
2022/11/22 13:29:20;;;;;;;12.27;2.70;;;;;;;;;;5092961;28;20250;-80
2022/11/22 13:32:01;;;;;;;9.67;2.53;;;;;;;;;;5092329;28;20202;-80
2022/11/22 13:34:28;;;;;;;11.30;2.23;;;;;;;;;;5092396;28;20268;-80
2022/11/22 13:36:56;;;;;;;6.80;1.83;;;;;;;;;;5094571;28;20263;-80
2022/11/22 13:39:26;;;;;;;7.60;1.90;;;;;;;;;;5114356;28;20201;-80
2022/11/22 13:41:55;;;;;;;11.17;2.00;;;;;;;;;;5114101;28;20241;-80
2022/11/22 13:44:38;;;;;;;8.57;1.87;;;;;;;;;;5104989;28;20202;-80
2022/11/22 13:47:06;;;;;;;11.10;2.00;;;;;;;;;;5073559;28;20214;-79
2022/11/22 13:49:39;;;;;;;15.00;2.83;;;;;;;;;;5088523;28;20240;-80
2022/11/22 13:52:26;;;;;;;10.43;1.93;;;;;;;;;;5098137;28;20203;-80
2022/11/22 13:55:11;;;;;;;8.63;1.90;;;;;;;;;;5089061;28;20229;-80
2022/11/22 13:57:41;;;;;;;10.40;2.20;;;;;;;;;;5108235;28;20280;-80
2022/11/22 14:00:26;;;;;;;8.27;1.67;;;;;;;;;;5103432;27;20724;-80
2022/11/22 14:02:54;;;;;;;10.90;2.13;;;;;;;;;;5096635;28;20193;-80
2022/11/22 14:05:25;;;;;;;11.43;2.20;;;;;;;;;;5093241;28;20648;-81
2022/11/22 14:07:52;;;;;;;9.20;2.17;;;;;;;;;;5097016;28;20245;-80
2022/11/22 14:10:32;;;;;;;10.27;2.00;;;;;;;;;;5113141;28;20261;-80
2022/11/22 14:13:09;;;;;;;10.60;2.73;;;;;;;;;;5114109;28;20288;-80
2022/11/22 14:15:51;;;;;;;8.33;2.10;;;;;;;;;;5114114;28;20225;-81
2022/11/22 14:18:34;;;;;;;14.30;2.57;;;;;;;;;;5110765;28;20205;-80
2022/11/22 14:21:04;;;;;;;9.13;2.17;;;;;;;;;;5100107;28;20194;-80
2022/11/22 14:23:36;;;;;;;13.60;2.60;;;;;;;;;;5108643;28;20625;-80
2022/11/22 14:26:13;;;;;;;11.60;1.90;;;;;;;;;;5097823;28;20305;-80
2022/11/22 14:29:07;;;;;;;9.73;1.70;;;;;;;;;;5092838;28;20198;-80
2022/11/22 14:31:37;;;;;;;9.63;1.90;;;;;;;;;;5072908;28;20238;-80
2022/11/22 14:34:14;;;;;;;11.60;1.83;;;;;;;;;;5113377;28;20240;-81
2022/11/22 14:36:42;;;;;;;8.03;1.83;;;;;;;;;;5104741;28;20198;-80
2022/11/22 14:39:24;;;;;;;9.27;1.70;;;;;;;;;;5099340;28;20215;-80
2022/11/22 14:41:51;;;;;;;10.23;2.17;;;;;;;;;;5112840;28;20208;-80
2022/11/22 14:44:19;;;;;;;8.83;2.00;;;;;;;;;;5079766;28;20724;-80
2022/11/22 14:46:53;;;;;;;9.40;1.70;;;;;;;;;;5105773;28;20266;-80
2022/11/22 14:49:32;;;;;;;11.60;2.67;;;;;;;;;;5094283;28;20254;-80
2022/11/22 14:52:00;;;;;;;10.77;1.90;;;;;;;;;;5097782;28;20198;-80
2022/11/22 14:54:29;;;;;;;7.80;1.67;;;;;;;;;;5092191;28;20650;-80
2022/11/22 14:56:57;;;;;;;8.63;2.00;;;;;;;;;;5112744;28;20223;-80
2022/11/22 14:59:33;;;;;;;11.27;1.77;;;;;;;;;;5112480;28;20633;-80
2022/11/22 15:02:17;;;;;;;10.67;2.17;;;;;;;;;;5086185;28;20233;-80
2022/11/22 15:04:50;;;;;;;11.00;2.53;;;;;;;;;;5106883;28;20247;-80
2022/11/22 15:07:41;;;;;;;11.73;3.67;;;;;;;;;;5109654;28;20198;-80